createdAt,value
2023-03-30T16:01:58.316Z,70.60
2023-03-30T16:03:40.913Z,66.40
2023-03-30T16:05:21.138Z,71.00
2023-03-30T16:06:53.158Z,54.00
2023-03-30T16:08:26.681Z,59.75
2023-03-30T16:09:59.052Z,57.00
2023-03-30T16:11:31.288Z,60.00
2023-03-30T16:13:03.575Z,66.25
2023-03-30T16:14:35.450Z,61.00
2023-03-30T16:16:08.167Z,58.50
2023-03-30T16:17:40.267Z,64.80
2023-03-30T16:19:13.000Z,61.75
2023-03-30T16:20:44.972Z,58.50
2023-03-30T16:22:16.998Z,53.25
2023-03-30T16:23:48.958Z,62.00
2023-03-30T16:25:24.236Z,56.50
2023-03-30T16:27:04.185Z,49.75
2023-03-30T16:28:36.144Z,50.50
2023-03-30T16:30:36.250Z,62.25
2023-03-30T16:32:08.527Z,65.80
2023-03-30T16:33:40.662Z,62.25
2023-03-30T16:35:13.165Z,57.75
2023-03-30T16:36:45.709Z,53.50
2023-03-30T16:38:18.134Z,48.00
2023-03-30T16:39:50.432Z,40.25
2023-03-30T16:41:23.313Z,42.50
2023-03-30T16:42:55.400Z,34.00
2023-03-30T16:44:27.657Z,35.25
2023-03-30T16:45:59.885Z,32.00
2023-03-30T16:47:32.390Z,43.50
2023-03-30T16:49:04.440Z,50.00
2023-03-30T16:51:07.172Z,49.00
2023-03-30T16:52:39.300Z,41.25
2023-03-30T16:54:23.024Z,46.75
2023-03-30T16:56:02.441Z,50.00
2023-03-30T16:57:34.724Z,38.75
2023-03-30T16:59:11.323Z,44.50
2023-03-30T17:00:49.045Z,36.00
2023-03-30T17:02:21.416Z,46.00
2023-03-30T17:03:53.508Z,45.75
2023-03-30T17:05:25.760Z,48.25
2023-03-30T17:06:57.975Z,53.50
2023-03-30T17:08:30.121Z,53.00
2023-03-30T17:10:26.991Z,53.50
2023-03-30T17:11:59.295Z,58.75
2023-03-30T17:13:32.294Z,56.75
2023-03-30T17:15:04.918Z,61.60
2023-03-30T17:16:37.474Z,65.20
2023-03-30T17:18:24.815Z,71.40
2023-03-30T17:19:57.054Z,77.75
2023-03-30T17:21:28.869Z,74.00
2023-03-30T17:23:00.898Z,73.00
2023-03-30T17:24:32.748Z,80.75
2023-03-30T17:26:04.988Z,80.00
2023-03-30T17:27:38.208Z,85.00
2023-03-30T17:29:10.441Z,83.75
2023-03-30T17:30:42.518Z,85.75
2023-03-30T17:32:14.930Z,89.25
2023-03-30T17:33:47.800Z,90.00
2023-03-30T17:35:19.794Z,97.00
2023-03-30T17:36:51.959Z,97.25
2023-03-30T17:38:24.350Z,101.00
2023-03-30T17:39:56.372Z,102.75
2023-03-30T17:41:28.683Z,101.75
2023-03-30T17:43:01.100Z,103.75
2023-03-30T17:44:34.103Z,104.00
2023-03-30T17:46:06.487Z,97.00
2023-03-30T17:47:39.080Z,92.25
2023-03-30T17:49:16.052Z,98.50
2023-03-30T17:50:50.021Z,105.50
2023-03-30T17:52:22.192Z,108.00
2023-03-30T17:53:54.109Z,111.00
2023-03-30T17:55:27.579Z,110.75
2023-03-30T17:56:59.508Z,105.25
2023-03-30T17:58:34.205Z,258.60
2023-03-30T18:00:23.558Z,184.75
2023-03-30T18:01:55.753Z,160.25
2023-03-30T18:03:29.512Z,151.75
2023-03-30T18:05:01.708Z,147.33
2023-03-30T18:06:33.722Z,140.00
2023-03-30T18:08:06.375Z,139.00
2023-03-30T18:09:38.268Z,129.00
2023-03-30T18:11:10.364Z,131.00
2023-03-30T18:12:42.254Z,117.00
2023-03-30T18:14:14.170Z,128.67
2023-03-30T18:15:48.553Z,121.33
2023-03-30T18:17:20.788Z,120.00
2023-03-30T18:18:52.682Z,126.00
2023-03-30T18:20:36.456Z,130.33
2023-03-30T18:22:08.351Z,118.75
2023-03-30T18:23:40.388Z,120.50
2023-03-30T18:25:19.095Z,123.75
2023-03-30T18:27:02.599Z,141.00
2023-03-30T18:28:35.137Z,160.00
2023-03-30T18:30:26.216Z,158.67
2023-03-30T18:31:58.131Z,133.67
2023-03-30T18:33:30.168Z,116.00
2023-03-30T18:35:02.250Z,112.75
2023-03-30T18:36:34.271Z,115.75
2023-03-30T18:38:06.374Z,115.00
2023-03-30T18:39:38.921Z,114.00
2023-03-30T18:41:13.541Z,99.75
2023-03-30T18:42:48.256Z,110.00
2023-03-30T18:44:20.643Z,108.25
2023-03-30T18:45:53.012Z,113.50
2023-03-30T18:47:26.447Z,110.50
2023-03-30T18:48:58.498Z,108.75
2023-03-30T18:50:40.594Z,107.25
2023-03-30T18:52:12.483Z,105.25
2023-03-30T18:53:44.826Z,129.00
2023-03-30T18:55:17.047Z,179.00
2023-03-30T18:56:49.850Z,172.50
2023-03-30T18:58:23.473Z,145.00
2023-03-30T18:59:56.837Z,139.67
2023-03-30T19:01:28.875Z,129.00
2023-03-30T19:03:01.617Z,119.50
2023-03-30T19:04:34.351Z,114.75
2023-03-30T19:06:10.126Z,108.00
2023-03-30T19:07:42.122Z,107.75
2023-03-30T19:09:14.421Z,102.00
2023-03-30T19:10:47.639Z,106.00
2023-03-30T19:12:19.709Z,104.25
2023-03-30T19:13:52.351Z,98.00
2023-03-30T19:15:34.724Z,105.50
2023-03-30T19:17:06.826Z,101.75
2023-03-30T19:18:39.160Z,98.00
2023-03-30T19:20:11.873Z,101.50
2023-03-30T19:21:46.274Z,100.75
2023-03-30T19:23:18.447Z,135.67
2023-03-30T19:24:50.831Z,131.33
2023-03-30T19:26:23.582Z,108.75
2023-03-30T19:28:03.390Z,114.00
2023-03-30T19:29:36.271Z,110.75
2023-03-30T19:31:16.547Z,103.50
2023-03-30T19:32:49.184Z,103.75
2023-03-30T19:34:21.156Z,108.00
2023-03-30T19:35:53.159Z,93.25
2023-03-30T19:37:25.950Z,103.00
2023-03-30T19:38:58.522Z,100.50
2023-03-30T19:40:30.527Z,99.50
2023-03-30T19:42:02.442Z,92.50
2023-03-30T19:43:34.439Z,101.00
2023-03-30T19:45:06.579Z,93.25
2023-03-30T19:46:38.946Z,102.75
2023-03-30T19:48:10.988Z,109.50
2023-03-30T19:49:43.101Z,102.50
2023-03-30T19:51:15.078Z,100.50
2023-03-30T19:52:48.863Z,168.00
2023-03-30T19:54:21.013Z,174.50
2023-03-30T19:55:52.967Z,137.33
2023-03-30T19:57:24.951Z,124.67
2023-03-30T19:58:58.898Z,129.00
2023-03-30T20:00:32.782Z,124.25
2023-03-30T20:02:04.967Z,115.75
2023-03-30T20:03:36.940Z,114.50
2023-03-30T20:05:10.460Z,111.25
2023-03-30T20:06:42.444Z,115.25
2023-03-30T20:08:23.345Z,113.75
2023-03-30T20:09:56.468Z,112.50
2023-03-30T20:11:28.444Z,109.50
2023-03-30T20:13:00.494Z,109.00
2023-03-30T20:14:32.746Z,100.00
2023-03-30T20:16:06.015Z,108.25
2023-03-30T20:17:38.553Z,97.00
2023-03-30T20:19:22.508Z,102.25
2023-03-30T20:21:03.563Z,112.00
2023-03-30T20:22:36.380Z,110.25
2023-03-30T20:24:08.704Z,112.00
2023-03-30T20:25:46.590Z,110.00
2023-03-30T20:27:18.517Z,110.75
2023-03-30T20:28:50.523Z,105.00
2023-03-30T20:30:22.430Z,108.75
2023-03-30T20:31:54.353Z,109.25
2023-03-30T20:33:27.497Z,112.50
2023-03-30T20:35:00.834Z,106.50
2023-03-30T20:36:32.783Z,94.00
2023-03-30T20:38:05.933Z,112.00
2023-03-30T20:39:37.843Z,104.50
2023-03-30T20:41:11.704Z,110.50
2023-03-30T20:42:48.205Z,110.00
2023-03-30T20:44:30.015Z,109.25
2023-03-30T20:46:09.700Z,109.25
2023-03-30T20:59:48.089Z,125.33
2023-03-30T21:01:28.385Z,129.67
2023-03-30T21:03:00.635Z,125.67
2023-03-30T21:04:33.952Z,122.00
2023-03-30T21:06:09.286Z,120.50
2023-03-30T21:07:42.437Z,123.00
2023-03-30T21:09:14.412Z,118.75
2023-03-30T21:10:46.412Z,112.75
2023-03-30T21:12:18.306Z,114.50
2023-03-30T21:13:54.665Z,118.75
2023-03-30T21:15:26.689Z,111.25
2023-03-30T21:16:58.639Z,112.25
2023-03-30T21:18:30.748Z,112.50
2023-03-30T21:20:02.708Z,110.75
2023-03-30T21:21:35.422Z,101.75
2023-03-30T21:23:07.336Z,107.25
2023-03-30T21:24:39.297Z,103.25
2023-03-30T21:26:11.774Z,105.00
2023-03-30T21:27:43.687Z,103.00
2023-03-30T21:29:15.687Z,102.25
2023-03-30T21:30:50.912Z,113.75
2023-03-30T21:32:22.850Z,102.75
2023-03-30T21:33:54.784Z,106.00
2023-03-30T21:35:26.687Z,103.25
2023-03-30T21:36:58.683Z,109.25
2023-03-30T21:38:30.846Z,101.25
2023-03-30T21:40:03.438Z,100.00
2023-03-30T21:41:35.399Z,108.75
2023-03-30T21:43:07.180Z,104.00
2023-03-30T21:44:39.103Z,97.00
2023-03-30T21:46:12.957Z,99.00
2023-03-30T21:47:44.883Z,102.75
2023-03-30T21:49:17.286Z,100.75
2023-03-30T21:50:49.482Z,103.00
2023-03-30T21:52:21.435Z,100.50
2023-03-30T21:53:53.955Z,99.75
2023-03-30T21:55:25.744Z,99.00
2023-03-30T21:56:57.670Z,91.25
2023-03-30T21:58:29.654Z,94.50
2023-03-30T22:00:01.523Z,99.25
2023-03-30T22:01:33.416Z,99.25
2023-03-30T22:03:05.712Z,91.25
2023-03-30T22:04:37.675Z,91.50
2023-03-30T22:06:10.556Z,90.75
2023-03-30T22:07:42.424Z,84.25
2023-03-30T22:09:14.392Z,86.50
2023-03-30T22:10:46.531Z,79.50
2023-03-30T22:12:18.371Z,75.00
2023-03-30T22:13:50.793Z,77.50
2023-03-30T22:15:22.625Z,82.75
2023-03-30T22:16:54.806Z,73.75
2023-03-30T22:18:27.019Z,87.25
2023-03-30T22:19:58.893Z,77.75
2023-03-30T22:21:34.609Z,79.75
2023-03-30T22:23:06.866Z,71.60
2023-03-30T22:24:38.860Z,68.80
2023-03-30T22:26:11.619Z,63.00
2023-03-30T22:27:45.204Z,70.60
2023-03-30T22:29:20.960Z,67.20
2023-03-30T22:30:52.974Z,68.00
2023-03-30T22:32:24.907Z,46.00
2023-03-30T22:33:57.032Z,111.75
